createdAt,value
2022-12-31T00:02:23.683Z,21.92
2022-12-31T00:04:51.303Z,21.77
2022-12-31T00:07:18.453Z,20.62
2022-12-31T00:09:45.682Z,21.67
2022-12-31T00:12:13.193Z,19.80
2022-12-31T00:14:40.356Z,20.58
2022-12-31T00:17:07.597Z,19.50
2022-12-31T00:19:35.074Z,19.85
2022-12-31T00:22:02.241Z,20.15
2022-12-31T00:24:31.180Z,21.00
2022-12-31T00:26:58.701Z,22.25
2022-12-31T00:29:25.907Z,21.60
2022-12-31T00:31:53.071Z,23.08
2022-12-31T00:34:20.524Z,20.05
2022-12-31T00:36:47.689Z,21.33
2022-12-31T00:39:14.903Z,21.92
2022-12-31T00:41:44.065Z,19.35
2022-12-31T00:44:12.415Z,19.48
2022-12-31T00:49:06.359Z,20.48
2022-12-31T00:51:33.605Z,22.20
2022-12-31T00:54:03.482Z,23.23
2022-12-31T00:56:31.612Z,21.10
2022-12-31T00:58:59.647Z,22.42
2022-12-31T01:01:35.206Z,20.20
2022-12-31T01:04:09.862Z,21.48
2022-12-31T01:09:06.562Z,20.48
2022-12-31T01:11:34.036Z,19.83
2022-12-31T01:14:02.704Z,20.15
2022-12-31T01:16:30.095Z,19.55
2022-12-31T01:18:59.364Z,20.40
2022-12-31T01:21:27.128Z,18.95
2022-12-31T01:23:54.557Z,21.17
2022-12-31T01:26:21.853Z,19.15
2022-12-31T01:28:49.177Z,20.27
2022-12-31T01:31:20.066Z,20.62
2022-12-31T01:33:47.685Z,21.00
2022-12-31T01:36:21.875Z,18.98
2022-12-31T01:38:54.117Z,19.37
2022-12-31T01:41:27.234Z,19.62
2022-12-31T01:43:55.739Z,19.93
2022-12-31T01:46:36.884Z,19.70
2022-12-31T01:50:00.545Z,19.05
2022-12-31T01:52:31.541Z,18.00
2022-12-31T01:55:10.061Z,19.42
2022-12-31T01:57:37.604Z,18.02
2022-12-31T02:00:06.187Z,18.05
2022-12-31T02:02:34.145Z,18.55
2022-12-31T02:05:03.493Z,19.52
2022-12-31T02:07:30.788Z,18.85
2022-12-31T02:09:57.946Z,19.45
2022-12-31T02:12:25.404Z,18.62
2022-12-31T02:14:53.829Z,16.17
2022-12-31T02:17:33.063Z,18.77
2022-12-31T02:20:29.358Z,17.90
2022-12-31T02:23:38.904Z,17.02
2022-12-31T02:26:33.100Z,18.15
2022-12-31T02:29:26.520Z,16.42
2022-12-31T02:32:04.254Z,16.12
2022-12-31T02:34:37.276Z,15.50
2022-12-31T02:37:08.431Z,16.60
2022-12-31T02:39:36.542Z,16.80
2022-12-31T02:42:03.879Z,17.30
2022-12-31T02:44:35.570Z,15.98
2022-12-31T02:47:02.574Z,15.68
2022-12-31T02:49:54.521Z,15.73
2022-12-31T02:52:36.389Z,16.45
2022-12-31T02:55:28.181Z,16.40
2022-12-31T02:58:08.191Z,16.95
2022-12-31T03:01:01.397Z,15.63
2022-12-31T03:03:29.231Z,14.93
2022-12-31T03:05:57.219Z,15.27
2022-12-31T03:08:27.109Z,17.15
2022-12-31T03:10:56.845Z,16.83
2022-12-31T03:13:24.664Z,14.95
2022-12-31T03:15:51.834Z,15.05
2022-12-31T03:18:40.129Z,15.80
2022-12-31T03:21:31.332Z,14.68
2022-12-31T03:24:17.283Z,15.50
2022-12-31T03:26:44.414Z,14.93
2022-12-31T03:29:11.864Z,17.08
2022-12-31T03:31:39.012Z,14.68
2022-12-31T03:34:06.086Z,17.87
2022-12-31T03:36:33.411Z,15.90
2022-12-31T03:39:00.480Z,16.23
2022-12-31T03:41:27.543Z,16.50
2022-12-31T03:43:54.927Z,16.10
2022-12-31T03:46:22.089Z,16.12
2022-12-31T03:48:49.187Z,14.77
2022-12-31T03:51:16.849Z,16.25
2022-12-31T03:53:43.958Z,15.25
2022-12-31T03:56:11.032Z,15.60
2022-12-31T03:58:38.513Z,15.95
2022-12-31T04:01:05.705Z,16.58
2022-12-31T04:03:33.132Z,17.35
2022-12-31T04:06:00.253Z,15.82
2022-12-31T04:08:27.379Z,16.95
2022-12-31T04:10:54.773Z,16.33
2022-12-31T04:13:21.862Z,15.50
2022-12-31T04:15:52.133Z,15.23
2022-12-31T04:18:19.505Z,15.50
2022-12-31T04:20:46.593Z,15.43
2022-12-31T04:23:13.662Z,16.05
2022-12-31T04:25:41.026Z,17.67
2022-12-31T04:28:11.238Z,18.98
2022-12-31T04:30:38.289Z,15.15
2022-12-31T04:33:05.662Z,18.30
2022-12-31T04:35:32.732Z,16.58
2022-12-31T04:37:59.772Z,18.12
2022-12-31T04:40:27.208Z,16.42
2022-12-31T04:42:54.324Z,16.20
2022-12-31T04:45:21.434Z,16.62
2022-12-31T04:47:48.805Z,15.93
2022-12-31T04:50:15.880Z,16.87
2022-12-31T04:52:43.201Z,15.52
2022-12-31T04:55:11.374Z,17.17
2022-12-31T04:57:38.935Z,17.05
2022-12-31T05:00:06.664Z,18.23
2022-12-31T05:02:34.190Z,15.77
2022-12-31T05:05:01.383Z,16.27
2022-12-31T05:07:28.473Z,16.52
2022-12-31T05:09:55.795Z,17.23
2022-12-31T05:12:22.856Z,15.48
2022-12-31T05:14:49.949Z,16.70
2022-12-31T05:17:17.357Z,16.42
2022-12-31T05:19:44.451Z,17.30
2022-12-31T05:22:29.461Z,16.70
2022-12-31T05:25:00.532Z,16.20
2022-12-31T05:27:31.004Z,18.65
2022-12-31T05:29:59.007Z,22.25
2022-12-31T05:32:26.369Z,20.00
2022-12-31T05:34:53.652Z,19.67
2022-12-31T05:37:21.031Z,19.62
2022-12-31T05:39:48.091Z,17.60
2022-12-31T05:42:15.952Z,16.62
2022-12-31T05:44:43.295Z,16.02
2022-12-31T05:47:10.360Z,15.20
2022-12-31T05:49:37.417Z,15.45
2022-12-31T05:52:05.076Z,17.67
2022-12-31T05:54:32.140Z,18.42
2022-12-31T05:56:59.766Z,17.67
2022-12-31T05:59:27.179Z,17.62
2022-12-31T06:01:54.337Z,15.05
2022-12-31T06:04:21.770Z,17.15
2022-12-31T06:06:48.922Z,15.40
2022-12-31T06:09:17.729Z,18.48
2022-12-31T06:11:46.483Z,16.75
2022-12-31T06:14:13.849Z,17.10
2022-12-31T06:16:41.351Z,17.52
2022-12-31T06:19:09.534Z,16.67
2022-12-31T06:21:36.576Z,17.15
2022-12-31T06:24:03.809Z,16.87
2022-12-31T06:26:31.194Z,18.15
2022-12-31T06:28:58.276Z,16.65
2022-12-31T06:31:25.402Z,17.27
2022-12-31T06:33:52.752Z,15.52
2022-12-31T06:36:21.788Z,17.67
2022-12-31T06:38:49.198Z,17.80
2022-12-31T06:41:18.311Z,17.83
2022-12-31T06:43:45.855Z,17.00
2022-12-31T06:46:16.265Z,17.40
2022-12-31T06:48:44.943Z,16.15
2022-12-31T06:51:17.349Z,18.05
2022-12-31T06:53:46.220Z,18.67
2022-12-31T06:56:19.531Z,17.25
2022-12-31T06:58:47.449Z,17.80
2022-12-31T07:01:41.937Z,17.55
2022-12-31T07:04:40.681Z,19.08
2022-12-31T07:07:22.100Z,16.45
2022-12-31T07:10:13.649Z,18.10
2022-12-31T07:13:18.276Z,19.70
2022-12-31T07:16:07.544Z,19.37
2022-12-31T07:18:48.358Z,18.58
2022-12-31T07:21:17.986Z,18.90
2022-12-31T07:23:45.607Z,20.12
2022-12-31T07:26:25.398Z,17.55
2022-12-31T07:29:17.227Z,18.05
2022-12-31T07:32:02.492Z,17.30
2022-12-31T07:34:37.436Z,16.42
2022-12-31T07:37:21.421Z,17.95
2022-12-31T07:40:05.975Z,17.42
2022-12-31T07:42:51.344Z,19.15
2022-12-31T07:45:38.027Z,18.65
2022-12-31T07:48:18.912Z,20.50
2022-12-31T07:50:46.523Z,18.55
2022-12-31T07:53:13.964Z,17.62
2022-12-31T07:55:41.570Z,18.98
2022-12-31T07:58:20.430Z,19.12
2022-12-31T08:00:48.457Z,17.35
2022-12-31T08:03:34.616Z,18.55
2022-12-31T08:06:26.264Z,19.70
2022-12-31T08:09:00.445Z,20.27
2022-12-31T08:11:42.615Z,20.77
2022-12-31T08:14:12.278Z,20.15
2022-12-31T08:16:39.761Z,18.48
2022-12-31T08:19:07.566Z,20.52
2022-12-31T08:21:48.932Z,20.48
2022-12-31T08:24:35.800Z,20.23
2022-12-31T08:27:23.023Z,31.08
2022-12-31T08:29:56.698Z,21.42
2022-12-31T08:32:43.809Z,20.67
2022-12-31T08:35:26.397Z,20.02
2022-12-31T08:38:07.141Z,17.92
2022-12-31T08:40:34.124Z,20.27
2022-12-31T08:43:10.495Z,19.87
2022-12-31T08:45:46.741Z,19.87
2022-12-31T08:48:27.455Z,21.37
2022-12-31T08:50:54.872Z,19.85
2022-12-31T08:53:22.730Z,20.10
2022-12-31T08:55:55.770Z,21.58
2022-12-31T08:58:41.971Z,20.92
2022-12-31T09:01:09.766Z,18.48
2022-12-31T09:03:49.187Z,18.15
2022-12-31T09:06:38.579Z,19.85
2022-12-31T09:09:21.215Z,21.52
2022-12-31T09:11:54.885Z,21.77
2022-12-31T09:14:43.372Z,19.10
2022-12-31T09:17:10.385Z,19.42
2022-12-31T09:19:37.832Z,21.98
2022-12-31T09:22:05.820Z,19.83
2022-12-31T09:24:33.219Z,18.98
2022-12-31T09:27:22.458Z,19.23
2022-12-31T09:30:09.537Z,20.52
2022-12-31T09:33:00.742Z,20.33
2022-12-31T09:35:47.281Z,23.20
2022-12-31T09:38:43.020Z,20.85
2022-12-31T09:41:37.751Z,19.62
2022-12-31T09:47:17.573Z,19.85
2022-12-31T09:50:15.946Z,20.00
2022-12-31T09:53:13.425Z,19.80
2022-12-31T09:56:11.592Z,19.65
2022-12-31T09:58:56.753Z,20.23
2022-12-31T10:01:45.700Z,23.45
2022-12-31T10:04:40.063Z,21.20
2022-12-31T10:07:19.277Z,19.77
2022-12-31T10:09:50.203Z,21.55
2022-12-31T10:12:42.545Z,20.35
2022-12-31T10:15:28.336Z,20.77
2022-12-31T10:18:01.241Z,19.98
2022-12-31T10:20:47.298Z,19.98
2022-12-31T10:23:38.717Z,20.00
2022-12-31T10:26:18.137Z,28.62
2022-12-31T10:28:45.202Z,22.37
2022-12-31T10:31:16.959Z,24.23
2022-12-31T10:34:17.585Z,23.40
2022-12-31T10:37:05.362Z,22.33
2022-12-31T10:39:49.991Z,22.20
2022-12-31T10:42:29.340Z,21.58
2022-12-31T10:45:20.746Z,21.35
2022-12-31T10:48:25.535Z,21.12
2022-12-31T10:51:05.168Z,21.25
2022-12-31T10:54:04.891Z,22.08
2022-12-31T10:57:01.100Z,20.95
2022-12-31T10:59:58.264Z,22.20
2022-12-31T11:02:28.523Z,21.08
2022-12-31T11:05:14.735Z,20.75
2022-12-31T11:08:20.782Z,20.45
2022-12-31T11:11:18.059Z,20.37
2022-12-31T11:13:45.038Z,23.70
2022-12-31T11:16:20.644Z,21.67
2022-12-31T11:18:51.737Z,21.33
2022-12-31T11:21:43.952Z,26.17
2022-12-31T11:24:13.880Z,24.42
2022-12-31T11:27:20.151Z,20.90
2022-12-31T11:30:25.160Z,21.58
2022-12-31T11:33:20.056Z,21.62
2022-12-31T11:36:00.562Z,19.42
2022-12-31T11:38:38.514Z,19.00
2022-12-31T11:41:08.007Z,18.98
2022-12-31T11:43:41.032Z,20.20
2022-12-31T11:46:21.609Z,20.70
2022-12-31T11:48:52.003Z,21.10
2022-12-31T11:51:33.970Z,19.85
2022-12-31T11:54:13.665Z,19.40
2022-12-31T11:56:42.202Z,17.48
2022-12-31T11:59:17.126Z,18.77
2022-12-31T12:01:52.776Z,18.90
2022-12-31T12:06:48.584Z,17.45
2022-12-31T12:09:22.531Z,15.77
2022-12-31T12:11:59.809Z,17.90
2022-12-31T12:14:38.360Z,14.95
2022-12-31T12:17:32.237Z,17.00
2022-12-31T12:20:10.859Z,15.50
2022-12-31T12:22:51.887Z,17.02
2022-12-31T12:25:21.714Z,16.75
2022-12-31T12:27:49.251Z,17.15
2022-12-31T12:30:27.994Z,18.58
2022-12-31T12:33:02.050Z,17.77
2022-12-31T12:35:31.870Z,17.87
2022-12-31T12:38:06.007Z,19.30
2022-12-31T12:40:34.626Z,16.40
2022-12-31T12:43:02.896Z,17.30
2022-12-31T12:45:52.383Z,17.75
2022-12-31T12:48:31.359Z,17.60
2022-12-31T12:50:59.883Z,17.00
2022-12-31T12:53:27.254Z,16.85
2022-12-31T12:56:06.772Z,16.70
2022-12-31T12:58:52.153Z,19.65
2022-12-31T13:01:30.975Z,18.73
2022-12-31T13:04:35.212Z,16.45
2022-12-31T13:07:14.812Z,17.03
2022-12-31T13:09:42.103Z,17.70
2022-12-31T13:12:56.783Z,16.45
2022-12-31T13:15:33.584Z,18.58
2022-12-31T13:18:04.051Z,21.42
2022-12-31T13:20:50.429Z,19.40
2022-12-31T13:23:49.532Z,18.10
2022-12-31T13:26:24.333Z,28.80
2022-12-31T13:28:52.907Z,16.70
2022-12-31T13:31:25.056Z,18.60
2022-12-31T13:33:59.420Z,20.10
2022-12-31T13:36:28.705Z,18.30
2022-12-31T13:38:58.321Z,19.10
2022-12-31T13:41:26.935Z,19.65
2022-12-31T13:44:20.588Z,20.62
2022-12-31T13:47:03.111Z,22.10
2022-12-31T13:49:36.339Z,23.62
2022-12-31T13:52:22.033Z,23.42
2022-12-31T13:55:18.584Z,23.23
2022-12-31T13:58:08.633Z,23.67
2022-12-31T14:00:44.228Z,21.27
2022-12-31T14:03:38.383Z,22.48
2022-12-31T14:06:11.300Z,21.15
2022-12-31T14:08:40.152Z,21.40
2022-12-31T14:11:19.092Z,21.15
2022-12-31T14:14:13.643Z,22.70
2022-12-31T14:17:21.081Z,22.77
2022-12-31T14:20:06.737Z,20.92
2022-12-31T14:22:54.407Z,21.80
2022-12-31T14:25:47.941Z,20.98
2022-12-31T14:28:24.275Z,21.87
2022-12-31T14:30:56.406Z,21.08
2022-12-31T14:33:30.999Z,20.15
2022-12-31T14:36:10.967Z,20.92
2022-12-31T14:38:56.492Z,22.52
2022-12-31T14:41:53.161Z,21.42
2022-12-31T14:44:44.917Z,23.30
2022-12-31T14:47:30.613Z,21.37
2022-12-31T14:50:09.777Z,22.90
2022-12-31T14:53:06.242Z,22.90
2022-12-31T14:55:36.073Z,23.33
2022-12-31T14:58:28.882Z,21.90
2022-12-31T15:01:01.699Z,22.37
2022-12-31T15:03:31.902Z,20.35
2022-12-31T15:06:13.878Z,22.58
2022-12-31T15:09:19.937Z,22.15
2022-12-31T15:11:55.875Z,22.90
2022-12-31T15:14:38.334Z,23.95
2022-12-31T15:17:31.135Z,22.45
2022-12-31T15:20:20.443Z,24.63
2022-12-31T15:22:49.323Z,22.25
2022-12-31T15:25:21.662Z,29.63
2022-12-31T15:27:49.033Z,29.77
2022-12-31T15:30:28.657Z,28.80
2022-12-31T15:32:57.777Z,30.35
2022-12-31T15:35:43.983Z,25.88
2022-12-31T15:38:11.063Z,23.42
2022-12-31T15:40:50.410Z,22.77
2022-12-31T15:43:26.636Z,23.12
2022-12-31T15:45:55.243Z,23.27
2022-12-31T15:48:32.517Z,24.60
2022-12-31T15:51:01.408Z,26.08
2022-12-31T15:53:39.339Z,23.40
2022-12-31T15:56:08.075Z,32.97
2022-12-31T15:58:36.796Z,25.12
2022-12-31T16:01:13.015Z,23.48
2022-12-31T16:03:55.732Z,21.67
2022-12-31T16:06:23.316Z,29.33
2022-12-31T16:08:50.765Z,33.70
2022-12-31T16:11:18.291Z,35.75
2022-12-31T16:13:50.001Z,44.08
2022-12-31T16:16:28.201Z,48.67
2022-12-31T16:18:56.296Z,42.97
2022-12-31T16:21:28.163Z,41.80
2022-12-31T16:23:57.999Z,44.35
2022-12-31T16:26:30.267Z,41.60
2022-12-31T16:29:00.197Z,43.15
2022-12-31T16:31:28.703Z,45.60
2022-12-31T16:34:13.584Z,51.70
2022-12-31T16:36:41.593Z,54.00
2022-12-31T16:39:38.223Z,56.40
2022-12-31T16:42:14.513Z,46.37
2022-12-31T16:44:41.942Z,48.58
2022-12-31T16:47:14.071Z,55.75
2022-12-31T16:49:41.512Z,57.15
2022-12-31T16:52:31.264Z,55.00
2022-12-31T16:54:59.204Z,44.08
2022-12-31T16:57:29.327Z,55.67
2022-12-31T17:00:06.998Z,40.00
2022-12-31T17:02:45.614Z,46.53
2022-12-31T17:05:18.770Z,54.05
2022-12-31T17:07:46.235Z,45.23
2022-12-31T17:10:27.747Z,43.58
2022-12-31T17:15:48.296Z,43.80
2022-12-31T17:18:21.112Z,43.97
2022-12-31T17:20:50.519Z,44.05
2022-12-31T17:23:24.087Z,47.25
2022-12-31T17:25:58.911Z,40.47
2022-12-31T17:28:27.752Z,37.58
2022-12-31T17:31:00.235Z,35.25
2022-12-31T17:33:28.909Z,34.60
2022-12-31T17:36:21.451Z,34.08
2022-12-31T17:38:48.984Z,36.55
2022-12-31T17:41:26.663Z,36.92
2022-12-31T17:43:55.474Z,31.35
2022-12-31T17:46:23.780Z,30.73
2022-12-31T17:48:58.369Z,34.22
2022-12-31T17:51:25.917Z,36.15
2022-12-31T17:53:53.090Z,40.40
2022-12-31T17:56:20.660Z,40.60
2022-12-31T17:58:51.291Z,34.65
2022-12-31T18:01:22.186Z,39.05
2022-12-31T18:03:50.234Z,43.25
2022-12-31T18:06:19.419Z,44.70
2022-12-31T18:08:46.771Z,45.45
2022-12-31T18:11:20.598Z,44.08
2022-12-31T18:13:47.973Z,46.03
2022-12-31T18:16:15.579Z,53.28
2022-12-31T18:18:43.768Z,50.22
2022-12-31T18:21:21.938Z,48.40
2022-12-31T18:23:49.958Z,55.20
2022-12-31T18:26:22.365Z,51.28
2022-12-31T18:28:50.316Z,40.22
2022-12-31T18:31:21.075Z,44.03
2022-12-31T18:33:48.875Z,57.38
2022-12-31T18:36:17.770Z,65.28
2022-12-31T18:38:45.314Z,59.08
2022-12-31T18:41:24.685Z,59.15
2022-12-31T18:43:52.194Z,78.30
2022-12-31T18:46:21.809Z,71.28
2022-12-31T18:48:48.976Z,74.80
2022-12-31T18:51:18.720Z,64.25
2022-12-31T18:53:46.028Z,70.55
2022-12-31T18:56:15.226Z,61.85
2022-12-31T18:58:42.980Z,61.80
2022-12-31T19:01:22.387Z,65.53
2022-12-31T19:03:49.808Z,71.10
2022-12-31T19:06:16.873Z,69.87
2022-12-31T19:08:43.948Z,70.85
2022-12-31T19:11:15.126Z,65.55
2022-12-31T19:13:42.511Z,75.00
2022-12-31T19:16:10.368Z,76.68
2022-12-31T19:18:37.774Z,76.47
2022-12-31T19:21:04.985Z,64.72
2022-12-31T19:23:32.101Z,69.47
2022-12-31T19:25:59.509Z,80.10
2022-12-31T19:28:27.673Z,84.28
2022-12-31T19:30:54.982Z,73.40
2022-12-31T19:33:22.586Z,72.47
2022-12-31T19:35:49.725Z,72.22
2022-12-31T19:38:17.680Z,67.47
2022-12-31T19:40:45.779Z,53.15
2022-12-31T19:43:14.564Z,46.80
2022-12-31T19:45:43.004Z,42.75
2022-12-31T19:48:12.595Z,40.88
2022-12-31T19:50:47.504Z,44.45
2022-12-31T19:53:18.180Z,46.15
2022-12-31T19:55:45.436Z,52.38
2022-12-31T19:58:18.113Z,47.10
2022-12-31T20:00:53.702Z,60.05
2022-12-31T20:03:23.826Z,60.90
2022-12-31T20:05:51.116Z,48.67
2022-12-31T20:08:20.290Z,59.42
2022-12-31T20:10:47.885Z,65.25
2022-12-31T20:13:15.038Z,50.22
2022-12-31T20:15:47.610Z,51.55
2022-12-31T20:18:20.906Z,55.83
2022-12-31T20:20:55.292Z,57.53
2022-12-31T20:23:23.408Z,48.85
2022-12-31T20:25:58.050Z,45.78
2022-12-31T20:28:25.744Z,38.80
2022-12-31T20:30:53.049Z,38.97
2022-12-31T20:33:20.485Z,41.05
2022-12-31T20:35:48.248Z,39.28
2022-12-31T20:38:15.501Z,34.95
2022-12-31T20:40:46.703Z,46.28
2022-12-31T20:43:14.650Z,46.80
2022-12-31T20:45:41.978Z,48.22
2022-12-31T20:48:09.156Z,61.97
2022-12-31T20:50:36.631Z,56.90
2022-12-31T20:53:03.768Z,50.28
2022-12-31T20:55:32.258Z,40.58
2022-12-31T20:58:00.602Z,34.53
2022-12-31T21:00:27.747Z,40.90
2022-12-31T21:03:04.929Z,36.35
2022-12-31T21:05:35.936Z,35.35
2022-12-31T21:08:03.403Z,56.22
2022-12-31T21:10:30.559Z,70.37
2022-12-31T21:12:57.995Z,73.00
2022-12-31T21:15:25.153Z,57.75
2022-12-31T21:17:52.371Z,43.78
2022-12-31T21:20:19.805Z,44.45
2022-12-31T21:22:49.753Z,52.35
2022-12-31T21:25:16.954Z,40.80
2022-12-31T21:27:47.136Z,43.47
2022-12-31T21:30:19.040Z,38.50
2022-12-31T21:32:47.321Z,42.88
2022-12-31T21:38:03.957Z,44.95
2022-12-31T21:40:31.689Z,59.90
2022-12-31T21:42:59.077Z,54.53
2022-12-31T21:45:26.612Z,48.13
2022-12-31T21:48:12.172Z,47.20
2022-12-31T21:50:39.615Z,133.37
2022-12-31T21:53:06.742Z,53.13
2022-12-31T21:55:52.575Z,54.20
2022-12-31T21:58:28.127Z,44.30
2022-12-31T22:01:15.293Z,48.72
2022-12-31T22:03:43.643Z,45.47
2022-12-31T22:06:14.298Z,47.83
2022-12-31T22:08:43.047Z,47.65
2022-12-31T22:11:11.937Z,48.50
2022-12-31T22:13:39.309Z,58.92
2022-12-31T22:16:07.449Z,73.65
2022-12-31T22:18:39.008Z,52.42
2022-12-31T22:21:21.273Z,52.35
2022-12-31T22:23:52.114Z,49.75
2022-12-31T22:26:23.482Z,49.00
2022-12-31T22:28:51.434Z,47.55
2022-12-31T22:31:21.154Z,47.72
2022-12-31T22:33:48.850Z,46.37
2022-12-31T22:36:19.380Z,46.88
2022-12-31T22:38:46.892Z,43.80
2022-12-31T22:41:16.234Z,46.35
2022-12-31T22:43:46.232Z,49.88
2022-12-31T22:46:18.758Z,41.30
2022-12-31T22:48:46.773Z,40.63
2022-12-31T22:51:15.288Z,40.58
2022-12-31T22:53:43.559Z,42.10
2022-12-31T22:56:13.582Z,40.15
2022-12-31T22:58:41.054Z,40.92
2022-12-31T23:01:15.459Z,49.88
2022-12-31T23:03:43.161Z,64.30
2022-12-31T23:06:10.502Z,85.57
2022-12-31T23:08:37.662Z,53.30
2022-12-31T23:11:11.305Z,75.00
2022-12-31T23:13:58.727Z,165.50
2022-12-31T23:16:46.534Z,208.50
2022-12-31T23:19:34.341Z,124.28
2022-12-31T23:22:23.362Z,122.65
2022-12-31T23:24:50.508Z,52.28
2022-12-31T23:27:17.939Z,45.70
2022-12-31T23:29:47.510Z,39.75
2022-12-31T23:32:15.934Z,49.20
2022-12-31T23:34:44.592Z,73.32
2022-12-31T23:37:13.269Z,82.00
2022-12-31T23:39:40.617Z,82.97
2022-12-31T23:42:08.458Z,82.10
2022-12-31T23:44:35.672Z,79.78
2022-12-31T23:47:02.886Z,75.40
2022-12-31T23:49:30.445Z,74.12
2022-12-31T23:51:57.579Z,65.15
2022-12-31T23:54:24.717Z,56.95
2022-12-31T23:56:52.139Z,57.00
2022-12-31T23:59:19.350Z,50.30
